Ana Sayfa
METAR-TAF:

METAR-TAF

Havaalanları :

Sandpoint Airport (Dave Wall Field)

Sandpoint, Idaho, Amerika Birleşik Devletleri

Enlem: 48-17-58N, Boylam: 116-33-36W, yükseklik: 648 m

Güncel hava durumu gözlemi

Rapor saat 20:55 UTC de 19 dakika önce yapıldı.
Sakin rüzgar
Sıcaklık 1°C
Nem 93%
Basınç 1008 hPa
Görüş mesafesi: 2.4 km
700 ft yükseklikte çok bulutlu
hafif kar

METAR: KSZT 232055Z AUTO 00000KT 1 1/2SM -SN OVC007 01/00 A2978 RMK AO2

Saat: 13:14 (21:14 UTC)


TAF: eksik

4.000'den fazla havaalanı için hava durumu gözlemleri ve tahminleri (METAR ve TAF raporları).

Kullanılabilir istasyonlar harita üzerinde sarı ve kırmızı noktalarla gösterilir.

İstasyonun adını görmek için fareyi noktanın üzerinde gezdirin.

Sonrasında hava gözlem ve tahminlerini görmek için tıklayın.

Haritayı değiştirmek için: yaklaştırmak için siyah artı işaretli yeşil düğmeye ve uzaklaştırmak için de eksi işaretli düğmeye hızla tıklayın; bitişik haritalar için yeşil okları kullanın.


METAR-TAF: